createdAt,value
2023-02-17T00:02:22.949Z,9.80
2023-02-17T00:04:49.918Z,9.73
2023-02-17T00:07:16.852Z,8.48
2023-02-17T00:09:43.861Z,8.77
2023-02-17T00:12:10.945Z,8.80
2023-02-17T00:14:40.060Z,7.70
2023-02-17T00:17:07.479Z,8.57
2023-02-17T00:19:36.452Z,7.78
2023-02-17T00:22:08.221Z,7.40
2023-02-17T00:24:42.740Z,7.88
2023-02-17T00:27:14.198Z,7.93
2023-02-17T00:29:45.025Z,7.05
2023-02-17T00:34:48.851Z,7.03
2023-02-17T00:37:22.146Z,6.15
2023-02-17T00:39:59.432Z,7.63
2023-02-17T00:42:34.881Z,7.38
2023-02-17T00:45:06.943Z,7.45
2023-02-17T00:47:38.395Z,6.30
2023-02-17T00:50:10.487Z,6.28
2023-02-17T00:52:45.292Z,6.45
2023-02-17T00:55:19.199Z,6.80
2023-02-17T00:57:51.221Z,6.55
2023-02-17T01:00:22.721Z,5.97
2023-02-17T01:02:52.957Z,6.72
2023-02-17T01:05:23.159Z,7.53
2023-02-17T01:07:56.765Z,6.93
2023-02-17T01:10:29.446Z,7.28
2023-02-17T01:13:01.428Z,6.95
2023-02-17T01:15:31.293Z,7.45
2023-02-17T01:18:01.140Z,5.93
2023-02-17T01:20:32.785Z,7.68
2023-02-17T01:23:04.243Z,6.65
2023-02-17T01:25:41.493Z,7.47
2023-02-17T01:28:17.276Z,7.35
2023-02-17T01:30:49.515Z,7.38
2023-02-17T01:33:19.261Z,7.53
2023-02-17T01:35:51.273Z,6.00
2023-02-17T01:38:24.005Z,7.60
2023-02-17T01:40:58.215Z,6.68
2023-02-17T01:43:31.419Z,7.28
2023-02-17T01:46:14.049Z,6.90
2023-02-17T01:48:53.470Z,7.00
2023-02-17T01:51:31.256Z,6.82
2023-02-17T01:54:04.344Z,7.18
2023-02-17T01:56:41.289Z,6.53
2023-02-17T01:59:24.185Z,6.72
2023-02-17T02:02:07.346Z,7.22
2023-02-17T02:04:42.713Z,6.93
2023-02-17T02:07:44.208Z,6.72
2023-02-17T02:10:18.504Z,6.00
2023-02-17T02:12:50.862Z,6.38
2023-02-17T02:15:25.081Z,5.72
2023-02-17T02:18:20.798Z,6.15
2023-02-17T02:21:08.534Z,6.75
2023-02-17T02:23:53.499Z,6.20
2023-02-17T02:27:01.110Z,6.30
2023-02-17T02:29:48.328Z,5.63
2023-02-17T02:32:42.385Z,6.57
2023-02-17T02:35:23.174Z,6.55
2023-02-17T02:40:39.591Z,5.95
2023-02-17T02:43:12.269Z,6.03
2023-02-17T02:45:46.487Z,6.40
2023-02-17T02:48:18.648Z,6.50
2023-02-17T02:51:12.727Z,6.22
2023-02-17T02:54:03.055Z,5.55
2023-02-17T02:56:53.225Z,5.25
2023-02-17T03:00:06.645Z,6.30
2023-02-17T03:03:12.552Z,5.53
2023-02-17T03:06:01.398Z,5.88
2023-02-17T03:08:48.900Z,5.32
2023-02-17T03:11:36.338Z,5.72
2023-02-17T03:14:18.216Z,5.82
2023-02-17T03:16:53.359Z,6.22
2023-02-17T03:19:31.245Z,5.80
2023-02-17T03:22:23.595Z,6.00
2023-02-17T03:24:54.147Z,5.95
2023-02-17T03:27:24.963Z,7.07
2023-02-17T03:29:58.259Z,5.85
2023-02-17T03:32:31.227Z,6.13
2023-02-17T03:35:04.442Z,6.00
2023-02-17T03:37:36.297Z,4.57
2023-02-17T03:40:11.388Z,6.55
2023-02-17T03:42:45.047Z,5.63
2023-02-17T03:45:17.712Z,5.93
2023-02-17T03:47:51.016Z,5.53
2023-02-17T03:50:21.177Z,6.25
2023-02-17T03:52:50.840Z,5.72
2023-02-17T03:55:22.303Z,5.60
2023-02-17T03:57:52.339Z,6.15
2023-02-17T04:00:23.039Z,5.53
2023-02-17T04:02:55.100Z,6.57
2023-02-17T04:05:27.791Z,6.38
2023-02-17T04:07:58.926Z,6.55
2023-02-17T04:10:33.756Z,6.07
2023-02-17T04:13:06.755Z,5.78
2023-02-17T04:15:42.520Z,6.00
2023-02-17T04:18:13.943Z,5.35
2023-02-17T04:20:45.085Z,5.82
2023-02-17T04:23:20.548Z,5.32
2023-02-17T04:25:51.059Z,5.85
2023-02-17T04:30:54.980Z,5.22
2023-02-17T04:33:26.350Z,6.63
2023-02-17T04:36:02.728Z,6.53
2023-02-17T04:38:35.077Z,6.30
2023-02-17T04:41:08.055Z,7.18
2023-02-17T04:43:42.886Z,7.07
2023-02-17T04:46:15.927Z,6.85
2023-02-17T04:48:47.016Z,7.32
2023-02-17T04:51:19.086Z,6.70
2023-02-17T04:53:54.529Z,7.57
2023-02-17T04:56:25.981Z,7.20
2023-02-17T05:01:32.645Z,6.95
2023-02-17T05:04:04.335Z,7.10
2023-02-17T05:06:40.081Z,7.22
2023-02-17T05:09:13.075Z,8.27
2023-02-17T05:11:42.693Z,6.20
2023-02-17T05:14:16.580Z,7.75
2023-02-17T05:16:50.188Z,7.18
2023-02-17T05:19:24.407Z,7.07
2023-02-17T05:21:56.771Z,7.53
2023-02-17T05:24:33.750Z,7.72
2023-02-17T05:27:03.056Z,7.88
2023-02-17T05:29:34.198Z,7.90
2023-02-17T05:32:02.942Z,8.93
2023-02-17T05:34:34.947Z,9.05
2023-02-17T05:37:09.168Z,9.45
2023-02-17T05:39:39.089Z,9.50
2023-02-17T05:42:09.927Z,11.13
2023-02-17T05:44:43.825Z,10.95
2023-02-17T05:47:14.657Z,11.43
2023-02-17T05:49:48.576Z,8.10
2023-02-17T05:52:21.138Z,8.02
2023-02-17T05:54:50.547Z,9.38
2023-02-17T05:57:22.732Z,9.57
2023-02-17T05:59:53.766Z,8.88
2023-02-17T06:02:25.827Z,8.77
2023-02-17T06:04:56.818Z,8.82
2023-02-17T06:07:27.817Z,8.05
2023-02-17T06:10:02.648Z,9.50
2023-02-17T06:12:33.477Z,9.25
2023-02-17T06:15:04.006Z,9.32
2023-02-17T06:17:43.141Z,9.07
2023-02-17T06:20:15.206Z,10.38
2023-02-17T06:25:15.033Z,8.45
2023-02-17T06:27:47.107Z,8.65
2023-02-17T06:30:18.940Z,8.30
2023-02-17T06:32:49.375Z,9.35
2023-02-17T06:37:54.499Z,10.02
2023-02-17T06:40:28.538Z,8.55
2023-02-17T06:43:01.137Z,9.40
2023-02-17T06:45:30.435Z,9.05
2023-02-17T06:48:01.126Z,9.82
2023-02-17T06:53:11.017Z,9.13
2023-02-17T06:55:44.112Z,10.47
2023-02-17T06:58:16.184Z,9.65
2023-02-17T07:00:51.174Z,9.50
2023-02-17T07:03:22.392Z,9.88
2023-02-17T07:05:54.524Z,11.43
2023-02-17T07:08:25.661Z,10.32
2023-02-17T07:11:00.191Z,9.18
2023-02-17T07:13:31.647Z,9.80
2023-02-17T07:16:03.127Z,9.48
2023-02-17T07:18:34.529Z,9.38
2023-02-17T07:21:07.246Z,10.25
2023-02-17T07:23:56.808Z,9.55
2023-02-17T07:26:29.182Z,9.27
2023-02-17T07:28:59.391Z,8.45
2023-02-17T07:31:33.983Z,9.57
2023-02-17T07:34:10.600Z,9.02
2023-02-17T07:36:43.272Z,8.48
2023-02-17T07:39:14.720Z,9.13
2023-02-17T07:41:47.400Z,8.73
2023-02-17T07:44:20.697Z,8.43
2023-02-17T07:46:49.384Z,9.60
2023-02-17T07:49:23.020Z,8.87
2023-02-17T07:51:53.513Z,8.82
2023-02-17T07:54:24.319Z,9.63
2023-02-17T07:56:57.950Z,6.53
2023-02-17T07:59:30.324Z,9.07
2023-02-17T08:02:03.417Z,9.02
2023-02-17T08:04:37.245Z,9.30
2023-02-17T08:07:10.512Z,9.90
2023-02-17T08:10:01.495Z,10.00
2023-02-17T08:12:50.274Z,9.95
2023-02-17T08:15:21.098Z,9.35
2023-02-17T08:17:56.864Z,9.75
2023-02-17T08:20:29.233Z,9.60
2023-02-17T08:23:01.605Z,11.23
2023-02-17T08:25:39.201Z,10.50
2023-02-17T08:28:11.234Z,11.40
2023-02-17T08:30:42.810Z,13.95
2023-02-17T08:33:13.406Z,11.48
2023-02-17T08:35:50.879Z,11.40
2023-02-17T08:38:23.834Z,10.60
2023-02-17T08:40:52.483Z,11.13
2023-02-17T08:43:25.822Z,10.73
2023-02-17T08:45:56.096Z,10.68
2023-02-17T08:48:26.873Z,10.38
2023-02-17T08:51:01.037Z,10.45
2023-02-17T08:53:33.154Z,11.15
2023-02-17T08:56:03.828Z,10.52
2023-02-17T08:58:38.204Z,11.18
2023-02-17T09:01:11.104Z,10.38
2023-02-17T09:03:43.593Z,10.32
2023-02-17T09:06:16.603Z,10.20
2023-02-17T09:08:51.358Z,9.23
2023-02-17T09:11:28.737Z,11.15
2023-02-17T09:14:01.648Z,10.38
2023-02-17T09:16:32.489Z,10.13
2023-02-17T09:19:04.865Z,9.95
2023-02-17T09:21:51.326Z,9.93
2023-02-17T09:24:21.115Z,10.32
2023-02-17T09:26:52.487Z,9.10
2023-02-17T09:29:24.803Z,9.88
2023-02-17T09:32:01.271Z,9.75
2023-02-17T09:34:32.950Z,10.88
2023-02-17T09:37:04.382Z,10.35
2023-02-17T09:39:34.295Z,10.30
2023-02-17T09:42:04.221Z,8.80
2023-02-17T09:45:10.280Z,10.38
2023-02-17T09:47:49.192Z,9.70
2023-02-17T09:50:23.489Z,10.38
2023-02-17T09:53:41.049Z,9.82
2023-02-17T09:56:19.595Z,8.70
2023-02-17T09:59:06.899Z,9.98
2023-02-17T10:01:42.699Z,10.13
2023-02-17T10:04:22.326Z,9.02
2023-02-17T10:07:21.094Z,8.45
2023-02-17T10:10:07.415Z,9.05
2023-02-17T10:12:48.348Z,8.90
2023-02-17T10:15:30.982Z,8.02
2023-02-17T10:18:12.437Z,8.82
2023-02-17T10:21:01.125Z,8.32
2023-02-17T10:23:33.775Z,9.32
2023-02-17T10:26:18.733Z,9.18
2023-02-17T10:29:30.964Z,9.35
2023-02-17T10:32:26.881Z,9.57
2023-02-17T10:35:15.774Z,9.48
2023-02-17T10:37:53.022Z,9.30
2023-02-17T10:40:26.922Z,9.88
2023-02-17T10:43:11.609Z,10.98
2023-02-17T10:45:48.564Z,9.63
2023-02-17T10:48:27.088Z,9.82
2023-02-17T10:51:02.222Z,10.82
2023-02-17T10:53:42.583Z,10.57
2023-02-17T10:56:40.950Z,10.85
2023-02-17T10:59:22.208Z,10.38
2023-02-17T11:01:53.492Z,10.85
2023-02-17T11:04:27.456Z,11.55
2023-02-17T11:07:03.771Z,10.90
2023-02-17T11:09:36.448Z,10.35
2023-02-17T11:12:18.962Z,11.20
2023-02-17T11:14:53.485Z,10.68
2023-02-17T11:20:19.235Z,9.38
2023-02-17T11:23:07.484Z,10.38
2023-02-17T11:25:42.599Z,10.13
2023-02-17T11:28:28.566Z,10.68
2023-02-17T11:31:06.485Z,9.57
2023-02-17T11:33:43.374Z,8.80
2023-02-17T11:36:36.021Z,9.88
2023-02-17T11:39:24.987Z,10.50
2023-02-17T11:41:57.363Z,9.00
2023-02-17T11:44:31.580Z,10.60
2023-02-17T11:47:22.683Z,10.23
2023-02-17T11:50:08.575Z,9.48
2023-02-17T11:53:20.994Z,10.80
2023-02-17T11:55:59.731Z,9.07
2023-02-17T11:59:03.414Z,10.38
2023-02-17T12:02:10.931Z,10.20
2023-02-17T12:05:29.254Z,9.68
2023-02-17T12:08:20.681Z,10.13
2023-02-17T12:10:56.739Z,9.35
2023-02-17T12:13:53.372Z,11.02
2023-02-17T12:16:59.236Z,10.32
2023-02-17T12:19:40.933Z,10.43
2023-02-17T12:22:30.128Z,9.95
2023-02-17T12:25:16.598Z,10.20
2023-02-17T12:27:48.968Z,11.25
2023-02-17T12:30:32.774Z,10.38
2023-02-17T12:33:18.908Z,9.93
2023-02-17T12:35:55.579Z,9.50
2023-02-17T12:38:34.071Z,10.00
2023-02-17T12:41:22.137Z,9.52
2023-02-17T12:44:11.105Z,9.18
2023-02-17T12:46:58.212Z,9.57
2023-02-17T12:49:57.321Z,9.95
2023-02-17T12:52:33.293Z,10.70
2023-02-17T12:55:29.400Z,10.45
2023-02-17T12:58:22.959Z,10.70
2023-02-17T13:01:13.499Z,10.68
2023-02-17T13:03:53.215Z,9.90
2023-02-17T13:06:47.706Z,10.68
2023-02-17T13:09:46.499Z,11.23
2023-02-17T13:12:21.294Z,10.68
2023-02-17T13:15:02.305Z,10.30
2023-02-17T13:20:31.009Z,11.07
2023-02-17T13:23:31.025Z,10.82
2023-02-17T13:26:27.376Z,11.23
2023-02-17T13:29:19.097Z,11.13
2023-02-17T13:32:05.491Z,11.48
2023-02-17T13:34:39.487Z,10.52
2023-02-17T13:37:40.761Z,12.10
2023-02-17T13:42:52.870Z,11.02
2023-02-17T13:45:48.605Z,10.52
2023-02-17T14:49:12.385Z,11.35
2023-02-17T14:51:46.897Z,11.25
2023-02-17T14:54:20.889Z,10.90
2023-02-17T14:57:12.835Z,12.52
2023-02-17T14:59:42.757Z,10.23
2023-02-17T15:02:26.492Z,12.10
2023-02-17T15:04:58.286Z,12.23
2023-02-17T15:07:34.016Z,10.40
2023-02-17T15:10:08.832Z,8.45
2023-02-17T15:12:40.880Z,11.02
2023-02-17T15:15:21.190Z,10.45
2023-02-17T15:17:53.325Z,10.60
2023-02-17T15:20:24.159Z,8.60
2023-02-17T15:22:57.454Z,12.40
2023-02-17T15:25:28.285Z,11.63
2023-02-17T15:27:58.516Z,11.43
2023-02-17T15:30:31.834Z,10.65
2023-02-17T15:33:05.332Z,21.73
2023-02-17T15:35:37.785Z,11.60
2023-02-17T15:38:13.531Z,8.85
2023-02-17T15:40:44.680Z,11.00
2023-02-17T15:43:22.609Z,26.73
2023-02-17T15:45:53.115Z,9.98
2023-02-17T15:48:30.711Z,11.07
2023-02-17T15:51:03.081Z,26.33
2023-02-17T15:53:40.362Z,11.60
2023-02-17T15:56:24.094Z,11.32
2023-02-17T15:58:54.005Z,12.10
2023-02-17T16:01:39.900Z,10.27
2023-02-17T16:04:21.485Z,10.07
2023-02-17T16:06:52.632Z,8.40
2023-02-17T16:09:25.928Z,9.50
2023-02-17T16:12:01.323Z,10.10
2023-02-17T16:14:40.817Z,11.18
2023-02-17T16:17:18.579Z,11.07
2023-02-17T16:19:52.622Z,9.93
2023-02-17T16:22:25.004Z,11.60
2023-02-17T16:24:54.239Z,8.27
2023-02-17T16:27:30.056Z,11.07
2023-02-17T16:30:03.529Z,9.82
2023-02-17T16:32:36.644Z,7.72
2023-02-17T16:35:10.550Z,10.82
2023-02-17T16:37:40.961Z,9.98
2023-02-17T16:40:32.498Z,8.50
2023-02-17T16:43:03.633Z,11.52
2023-02-17T16:45:42.878Z,10.80
2023-02-17T17:49:55.102Z,10.45
2023-02-17T17:52:29.612Z,9.93
2023-02-17T17:55:00.663Z,9.60
2023-02-17T17:57:30.940Z,7.43
2023-02-17T18:00:04.887Z,10.27
2023-02-17T18:02:37.570Z,7.57
2023-02-17T18:05:09.327Z,6.97
2023-02-17T18:07:40.936Z,8.55
2023-02-17T18:10:14.990Z,8.27
2023-02-17T18:12:47.371Z,10.48
2023-02-17T18:15:20.662Z,10.25
2023-02-17T18:17:52.728Z,8.82
2023-02-17T18:20:22.613Z,9.05
2023-02-17T18:22:52.559Z,10.23
2023-02-17T18:25:24.039Z,8.15
2023-02-17T18:28:00.053Z,9.57
2023-02-17T18:30:32.459Z,9.05
2023-02-17T18:33:02.513Z,4.80
2023-02-17T18:35:32.568Z,9.85
2023-02-17T18:38:03.676Z,8.80
2023-02-17T18:40:35.147Z,5.88
2023-02-17T18:43:04.403Z,8.30
2023-02-17T18:46:00.898Z,9.02
2023-02-17T18:48:32.556Z,9.45
2023-02-17T18:51:13.529Z,9.77
2023-02-17T18:53:46.826Z,6.55
2023-02-17T18:56:29.337Z,8.82
2023-02-17T18:59:03.342Z,8.07
2023-02-17T19:01:39.408Z,7.00
2023-02-17T19:04:14.748Z,8.48
2023-02-17T19:06:45.277Z,9.05
2023-02-17T19:09:13.954Z,9.07
2023-02-17T19:11:43.384Z,9.55
2023-02-17T19:14:16.557Z,8.85
2023-02-17T19:16:47.690Z,9.52
2023-02-17T19:21:52.746Z,7.07
2023-02-17T19:24:26.043Z,6.68
2023-02-17T19:26:57.184Z,4.75
2023-02-17T19:29:30.176Z,7.50
2023-02-17T19:32:07.520Z,4.88
2023-02-17T19:34:42.600Z,5.30
2023-02-17T19:37:14.977Z,5.88
2023-02-17T19:39:47.654Z,6.88
2023-02-17T19:42:23.091Z,5.63
2023-02-17T19:44:53.014Z,4.97
2023-02-17T19:47:22.930Z,4.68
2023-02-17T19:49:54.074Z,4.85
2023-02-17T19:52:25.521Z,4.63
2023-02-17T19:54:59.900Z,5.15
2023-02-17T19:57:33.347Z,5.05
2023-02-17T20:00:05.408Z,4.85
2023-02-17T20:02:43.973Z,5.22
2023-02-17T20:05:14.451Z,5.10
2023-02-17T20:07:49.286Z,3.67
2023-02-17T20:10:22.275Z,4.00
2023-02-17T20:12:52.497Z,4.00
2023-02-17T20:15:25.580Z,3.27
2023-02-17T20:17:56.620Z,3.72
2023-02-17T20:20:25.624Z,2.78
2023-02-17T20:22:59.529Z,3.27
2023-02-17T20:25:30.056Z,3.90
2023-02-17T20:28:03.041Z,4.38
2023-02-17T20:30:33.872Z,3.80
2023-02-17T20:33:06.564Z,2.88
2023-02-17T20:35:39.544Z,3.17
2023-02-17T20:38:12.224Z,3.78
2023-02-17T20:40:42.445Z,3.20
2023-02-17T20:43:13.798Z,2.00
2023-02-17T20:48:21.098Z,3.30
2023-02-17T20:50:53.268Z,1.85
2023-02-17T20:53:24.009Z,2.90
2023-02-17T20:55:55.768Z,3.10
2023-02-17T20:58:28.462Z,4.90
2023-02-17T21:01:00.257Z,2.35
2023-02-17T21:03:32.470Z,3.15
2023-02-17T21:06:10.286Z,2.60
2023-02-17T21:08:43.157Z,1.95
2023-02-17T21:11:15.110Z,2.78
2023-02-17T21:13:44.496Z,2.75
2023-02-17T21:16:23.111Z,2.80
2023-02-17T21:18:55.735Z,1.98
2023-02-17T21:21:28.822Z,1.85
2023-02-17T21:24:02.003Z,1.73
2023-02-17T21:26:36.221Z,2.35
2023-02-17T21:29:13.501Z,2.97
2023-02-17T21:31:43.210Z,2.67
2023-02-17T21:34:14.900Z,3.03
2023-02-17T21:36:47.242Z,2.53
2023-02-17T21:39:17.157Z,2.20
2023-02-17T21:41:47.065Z,2.40
2023-02-17T21:44:36.657Z,2.05
2023-02-17T21:47:07.490Z,2.47
2023-02-17T21:49:39.546Z,3.40
2023-02-17T21:52:13.459Z,2.20
2023-02-17T21:54:46.139Z,3.03
2023-02-17T21:57:16.684Z,1.88
2023-02-17T21:59:48.110Z,2.55
2023-02-17T22:02:17.722Z,2.38
2023-02-17T22:04:50.883Z,2.00
2023-02-17T22:07:20.760Z,1.95
2023-02-17T22:09:52.688Z,2.10
2023-02-17T22:12:24.443Z,1.05
2023-02-17T22:14:55.254Z,1.45
2023-02-17T22:17:26.136Z,1.88
2023-02-17T22:20:00.882Z,1.85
2023-02-17T22:22:34.544Z,1.90
2023-02-17T22:25:05.085Z,1.95
2023-02-17T22:27:35.271Z,1.88
2023-02-17T22:30:10.886Z,2.05
2023-02-17T22:32:46.813Z,1.63
2023-02-17T22:35:22.007Z,1.70
2023-02-17T22:37:53.400Z,1.70
2023-02-17T22:40:26.076Z,1.90
2023-02-17T22:42:57.834Z,1.65
2023-02-17T22:45:27.131Z,1.80
2023-02-17T22:48:00.904Z,1.88
2023-02-17T22:50:32.497Z,1.75
2023-02-17T22:53:04.866Z,1.65
2023-02-17T22:55:40.005Z,1.60
2023-02-17T22:58:11.058Z,1.73
2023-02-17T23:03:22.968Z,1.85
2023-02-17T23:05:52.868Z,2.15
2023-02-17T23:08:22.794Z,2.45
2023-02-17T23:10:52.700Z,1.85
2023-02-17T23:13:23.848Z,1.85
2023-02-17T23:15:55.918Z,1.92
2023-02-17T23:18:30.906Z,1.90
2023-02-17T23:21:02.498Z,2.53
2023-02-17T23:23:32.722Z,1.75
2023-02-17T23:26:03.579Z,1.95
2023-02-17T23:28:36.241Z,2.20
2023-02-17T23:31:08.090Z,2.00
2023-02-17T23:33:42.529Z,2.05
2023-02-17T23:36:12.437Z,2.20
2023-02-17T23:38:46.352Z,2.10
2023-02-17T23:41:20.855Z,2.03
2023-02-17T23:43:52.008Z,2.53
2023-02-17T23:46:22.511Z,2.40
2023-02-17T23:48:52.463Z,3.05
2023-02-17T23:51:23.907Z,2.10
2023-02-17T23:53:57.200Z,2.05
2023-02-17T23:56:38.507Z,2.83
2023-02-17T23:59:14.536Z,2.78
